createdAt,value
2019-02-15T00:00:47.917Z,1027.15
2019-02-15T00:01:47.908Z,1027.17
2019-02-15T00:02:47.896Z,1027.15
2019-02-15T00:03:47.888Z,1027.15
2019-02-15T00:04:47.871Z,1027.14
2019-02-15T00:05:47.870Z,1027.14
2019-02-15T00:06:47.860Z,1027.14
2019-02-15T00:07:47.868Z,1027.11
2019-02-15T00:08:47.837Z,1027.12
2019-02-15T00:09:47.832Z,1027.10
2019-02-15T00:10:47.815Z,1027.12
2019-02-15T00:11:47.800Z,1027.14
2019-02-15T00:12:47.790Z,1027.15
2019-02-15T00:13:47.775Z,1027.06
2019-02-15T00:14:47.771Z,1027.12
2019-02-15T00:15:47.757Z,1027.12
2019-02-15T00:16:47.750Z,1027.09
2019-02-15T00:17:47.735Z,1027.11
2019-02-15T00:18:47.725Z,1027.09
2019-02-15T00:19:47.715Z,1027.08
2019-02-15T00:20:49.419Z,1027.10
2019-02-15T00:21:47.704Z,1027.08
2019-02-15T00:22:47.682Z,1027.07
2019-02-15T00:23:47.667Z,1027.07
2019-02-15T00:24:47.664Z,1027.05
2019-02-15T00:25:47.654Z,1027.07
2019-02-15T00:26:47.642Z,1027.09
2019-02-15T00:27:47.638Z,1027.09
2019-02-15T00:28:47.620Z,1027.12
2019-02-15T00:29:47.609Z,1027.16
2019-02-15T00:30:47.599Z,1027.14
2019-02-15T00:31:47.589Z,1027.17
2019-02-15T00:32:47.574Z,1027.15
2019-02-15T00:33:47.565Z,1027.16
2019-02-15T00:34:47.556Z,1027.17
2019-02-15T00:35:47.547Z,1027.15
2019-02-15T00:36:47.580Z,1027.17
2019-02-15T00:37:47.531Z,1027.18
2019-02-15T00:38:47.514Z,1027.17
2019-02-15T00:39:47.500Z,1027.19
2019-02-15T00:40:47.499Z,1027.17
2019-02-15T00:41:47.481Z,1027.17
2019-02-15T00:42:47.468Z,1027.19
2019-02-15T00:43:47.466Z,1027.15
2019-02-15T00:44:47.444Z,1027.18
2019-02-15T00:45:47.436Z,1027.20
2019-02-15T00:46:47.438Z,1027.21
2019-02-15T00:47:47.420Z,1027.19
2019-02-15T00:48:47.399Z,1027.20
2019-02-15T00:49:47.396Z,1027.21
2019-02-15T00:50:47.382Z,1027.16
2019-02-15T00:51:47.371Z,1027.19
2019-02-15T00:52:47.363Z,1027.18
2019-02-15T00:53:47.351Z,1027.14
2019-02-15T00:54:47.340Z,1027.14
2019-02-15T00:55:47.331Z,1027.15
2019-02-15T00:56:47.326Z,1027.12
2019-02-15T00:57:47.309Z,1027.07
2019-02-15T00:58:47.298Z,1027.08
2019-02-15T00:59:47.286Z,1027.13
2019-02-15T01:00:47.285Z,1027.12
2019-02-15T01:01:47.266Z,1027.13
2019-02-15T01:02:47.253Z,1027.16
2019-02-15T01:03:47.246Z,1027.15
2019-02-15T01:04:47.231Z,1027.16
2019-02-15T01:05:47.220Z,1027.10
2019-02-15T01:06:47.216Z,1027.12
2019-02-15T01:07:47.201Z,1027.10
2019-02-15T01:08:47.190Z,1027.09
2019-02-15T01:09:47.179Z,1027.08
2019-02-15T01:10:47.171Z,1027.10
2019-02-15T01:11:47.158Z,1027.12
2019-02-15T01:12:47.150Z,1027.10
2019-02-15T01:13:47.138Z,1027.13
2019-02-15T01:14:47.132Z,1027.10
2019-02-15T01:15:47.113Z,1027.10
2019-02-15T01:16:47.098Z,1027.09
2019-02-15T01:17:47.091Z,1027.06
2019-02-15T01:18:47.091Z,1027.07
2019-02-15T01:19:47.071Z,1027.08
2019-02-15T01:20:47.059Z,1027.05
2019-02-15T01:21:50.805Z,1027.04
2019-02-15T01:22:47.039Z,1027.05
2019-02-15T01:23:47.032Z,1027.00
2019-02-15T01:24:47.021Z,1027.01
2019-02-15T01:25:47.004Z,1027.01
2019-02-15T01:26:46.996Z,1027.02
2019-02-15T01:27:46.986Z,1026.99
2019-02-15T01:28:46.971Z,1027.01
2019-02-15T01:29:46.963Z,1027.00
2019-02-15T01:30:46.952Z,1026.99
2019-02-15T01:31:46.949Z,1026.98
2019-02-15T01:32:46.931Z,1027.00
2019-02-15T01:33:46.914Z,1026.99
2019-02-15T01:34:46.910Z,1026.99
2019-02-15T01:35:46.900Z,1027.00
2019-02-15T01:36:46.884Z,1026.99
2019-02-15T01:37:46.870Z,1026.98
2019-02-15T01:38:46.864Z,1026.97
2019-02-15T01:39:46.849Z,1026.97
2019-02-15T01:40:46.843Z,1027.00
2019-02-15T01:41:46.836Z,1026.96
2019-02-15T01:42:46.817Z,1026.93
2019-02-15T01:43:46.806Z,1026.95
2019-02-15T01:44:46.798Z,1026.95
2019-02-15T01:45:46.788Z,1026.89
2019-02-15T01:46:46.773Z,1026.88
2019-02-15T01:47:46.764Z,1026.85
2019-02-15T01:48:46.751Z,1026.82
2019-02-15T01:49:46.744Z,1026.87
2019-02-15T01:50:46.723Z,1026.79
2019-02-15T01:51:46.714Z,1026.79
2019-02-15T01:52:46.711Z,1026.81
2019-02-15T01:53:46.692Z,1026.78
2019-02-15T01:54:46.690Z,1026.79
2019-02-15T01:55:46.673Z,1026.80
2019-02-15T01:56:46.667Z,1026.78
2019-02-15T01:57:46.657Z,1026.74
2019-02-15T01:58:46.642Z,1026.72
2019-02-15T01:59:46.629Z,1026.73
2019-02-15T02:00:46.618Z,1026.70
2019-02-15T02:01:46.618Z,1026.70
2019-02-15T02:02:46.598Z,1026.67
2019-02-15T02:03:46.586Z,1026.74
2019-02-15T02:04:46.584Z,1026.71
2019-02-15T02:05:46.561Z,1026.66
2019-02-15T02:06:46.553Z,1026.68
2019-02-15T02:07:46.543Z,1026.65
2019-02-15T02:08:46.529Z,1026.67
2019-02-15T02:09:46.520Z,1026.67
2019-02-15T02:10:46.514Z,1026.66
2019-02-15T02:11:46.493Z,1026.71
2019-02-15T02:12:46.479Z,1026.69
2019-02-15T02:13:49.593Z,1026.67
2019-02-15T02:14:46.467Z,1026.64
2019-02-15T02:15:46.451Z,1026.65
2019-02-15T02:16:46.441Z,1026.64
2019-02-15T02:17:46.433Z,1026.59
2019-02-15T02:18:46.418Z,1026.60
2019-02-15T02:19:46.407Z,1026.56
2019-02-15T02:20:46.400Z,1026.55
2019-02-15T02:21:46.391Z,1026.52
2019-02-15T02:22:46.379Z,1026.50
2019-02-15T02:23:46.363Z,1026.48
2019-02-15T02:24:46.354Z,1026.46
2019-02-15T02:25:46.343Z,1026.48
2019-02-15T02:26:46.328Z,1026.44
2019-02-15T02:27:46.322Z,1026.43
2019-02-15T02:28:46.309Z,1026.45
2019-02-15T02:29:46.297Z,1026.48
2019-02-15T02:30:46.292Z,1026.42
2019-02-15T02:31:46.273Z,1026.46
2019-02-15T02:32:46.258Z,1026.46
2019-02-15T02:33:46.254Z,1026.44
2019-02-15T02:34:46.244Z,1026.45
2019-02-15T02:35:46.232Z,1026.42
2019-02-15T02:36:46.215Z,1026.47
2019-02-15T02:37:46.214Z,1026.46
2019-02-15T02:38:46.195Z,1026.47
2019-02-15T02:39:46.186Z,1026.47
2019-02-15T02:40:46.170Z,1026.49
2019-02-15T02:41:46.169Z,1026.46
2019-02-15T02:42:46.157Z,1026.45
2019-02-15T02:43:46.134Z,1026.43
2019-02-15T02:44:46.125Z,1026.42
2019-02-15T02:45:46.118Z,1026.40
2019-02-15T02:46:46.100Z,1026.44
2019-02-15T02:47:46.103Z,1026.45
2019-02-15T02:48:46.085Z,1026.43
2019-02-15T02:49:46.071Z,1026.42
2019-02-15T02:50:46.061Z,1026.41
2019-02-15T02:51:46.054Z,1026.40
2019-02-15T02:52:46.037Z,1026.40
2019-02-15T02:53:46.029Z,1026.38
2019-02-15T02:54:46.019Z,1026.43
2019-02-15T02:55:46.008Z,1026.38
2019-02-15T02:56:45.990Z,1026.38
2019-02-15T02:57:45.992Z,1026.37
2019-02-15T02:58:47.945Z,1026.32
2019-02-15T02:59:45.954Z,1026.33
2019-02-15T03:00:45.943Z,1026.31
2019-02-15T03:01:45.940Z,1026.29
2019-02-15T03:02:45.926Z,1026.29
2019-02-15T03:03:45.910Z,1026.29
2019-02-15T03:04:45.898Z,1026.29
2019-02-15T03:05:45.902Z,1026.26
2019-02-15T03:06:45.876Z,1026.27
2019-02-15T03:07:45.863Z,1026.29
2019-02-15T03:08:45.850Z,1026.26
2019-02-15T03:09:45.838Z,1026.29
2019-02-15T03:10:45.822Z,1026.27
2019-02-15T03:11:45.815Z,1026.28
2019-02-15T03:12:45.802Z,1026.27
2019-02-15T03:13:45.792Z,1026.25
2019-02-15T03:14:45.776Z,1026.28
2019-02-15T03:15:45.762Z,1026.28
2019-02-15T03:16:45.752Z,1026.28
2019-02-15T03:17:45.746Z,1026.23
2019-02-15T03:18:45.726Z,1026.25
2019-02-15T03:19:45.721Z,1026.23
2019-02-15T03:20:45.716Z,1026.26
2019-02-15T03:21:45.695Z,1026.23
2019-02-15T03:22:45.685Z,1026.20
2019-02-15T03:23:45.674Z,1026.25
2019-02-15T03:24:45.663Z,1026.21
2019-02-15T03:25:45.646Z,1026.15
2019-02-15T03:26:45.635Z,1026.15
2019-02-15T03:27:45.621Z,1026.15
2019-02-15T03:28:45.616Z,1026.17
2019-02-15T03:29:45.595Z,1026.13
2019-02-15T03:30:45.586Z,1026.15
2019-02-15T03:31:45.615Z,1026.13
2019-02-15T03:32:45.573Z,1026.14
2019-02-15T03:33:45.559Z,1026.13
2019-02-15T03:34:47.457Z,1026.11
2019-02-15T03:35:45.527Z,1026.13
2019-02-15T03:36:45.509Z,1026.10
2019-02-15T03:37:45.500Z,1026.10
2019-02-15T03:38:45.489Z,1026.10
2019-02-15T03:39:45.478Z,1026.09
2019-02-15T03:40:45.474Z,1026.08
2019-02-15T03:41:45.462Z,1026.10
2019-02-15T03:42:45.449Z,1026.08
2019-02-15T03:43:45.429Z,1026.06
2019-02-15T03:44:45.423Z,1026.02
2019-02-15T03:45:45.402Z,1025.99
2019-02-15T03:46:45.393Z,1026.04
2019-02-15T03:47:45.379Z,1026.01
2019-02-15T03:48:45.361Z,1025.99
2019-02-15T03:49:45.355Z,1026.01
2019-02-15T03:50:45.352Z,1026.02
2019-02-15T03:51:45.333Z,1026.00
2019-02-15T03:52:45.316Z,1026.01
2019-02-15T03:53:45.313Z,1025.96
2019-02-15T03:54:45.295Z,1025.97
2019-02-15T03:55:45.290Z,1025.95
2019-02-15T03:56:45.268Z,1025.94
2019-02-15T03:57:45.260Z,1025.90
2019-02-15T03:58:45.251Z,1025.93
2019-02-15T03:59:45.231Z,1025.92
2019-02-15T04:00:45.218Z,1025.95
2019-02-15T04:01:45.210Z,1025.95
2019-02-15T04:02:45.200Z,1025.94
2019-02-15T04:03:45.181Z,1025.99
2019-02-15T04:04:45.166Z,1025.99
2019-02-15T04:05:45.158Z,1025.92
2019-02-15T04:06:45.156Z,1025.96
2019-02-15T04:07:45.131Z,1025.94
2019-02-15T04:08:45.125Z,1025.94
2019-02-15T04:09:45.109Z,1025.92
2019-02-15T04:10:45.098Z,1025.90
2019-02-15T04:11:45.084Z,1025.93
2019-02-15T04:12:45.082Z,1025.95
2019-02-15T04:13:45.073Z,1025.95
2019-02-15T04:14:45.050Z,1025.96
2019-02-15T04:15:45.033Z,1025.94
2019-02-15T04:16:45.024Z,1025.96
2019-02-15T04:17:45.018Z,1025.94
2019-02-15T04:18:44.994Z,1025.94
2019-02-15T04:19:44.987Z,1025.93
2019-02-15T04:20:44.973Z,1025.92
2019-02-15T04:21:44.959Z,1025.97
2019-02-15T04:22:44.953Z,1025.97
2019-02-15T04:23:44.944Z,1025.99
2019-02-15T04:24:44.921Z,1025.97
2019-02-15T04:25:44.918Z,1026.00
2019-02-15T04:26:44.895Z,1026.00
2019-02-15T04:27:44.886Z,1026.01
2019-02-15T04:28:44.878Z,1026.01
2019-02-15T04:29:44.869Z,1026.03
2019-02-15T04:30:44.849Z,1026.05
2019-02-15T04:31:44.839Z,1026.04
2019-02-15T04:32:44.825Z,1026.02
2019-02-15T04:33:44.811Z,1026.04
2019-02-15T04:34:44.798Z,1026.00
2019-02-15T04:35:44.782Z,1026.00
2019-02-15T04:36:44.863Z,1026.01
2019-02-15T04:37:44.762Z,1026.05
2019-02-15T04:38:44.756Z,1026.01
2019-02-15T04:39:44.741Z,1026.01
2019-02-15T04:40:44.723Z,1026.03
2019-02-15T04:41:44.716Z,1025.99
2019-02-15T04:42:44.711Z,1025.99
2019-02-15T04:43:44.690Z,1026.02
2019-02-15T04:44:44.673Z,1026.03
2019-02-15T04:45:44.662Z,1026.05
2019-02-15T04:46:44.653Z,1026.09
2019-02-15T04:47:44.644Z,1026.08
2019-02-15T04:48:45.154Z,1026.09
2019-02-15T04:49:44.627Z,1026.09
2019-02-15T04:50:44.609Z,1026.11
2019-02-15T04:51:44.587Z,1026.09
2019-02-15T04:52:44.576Z,1026.12
2019-02-15T04:53:44.561Z,1026.11
2019-02-15T04:54:44.554Z,1026.09
2019-02-15T04:55:44.539Z,1026.09
2019-02-15T04:56:46.460Z,1026.06
2019-02-15T04:57:44.519Z,1026.07
2019-02-15T04:58:44.500Z,1026.07
2019-02-15T04:59:44.491Z,1026.03
2019-02-15T05:00:44.478Z,1026.02
2019-02-15T05:01:44.464Z,1026.08
2019-02-15T05:02:44.461Z,1026.04
2019-02-15T05:03:44.444Z,1026.05
2019-02-15T05:04:44.426Z,1025.99
2019-02-15T05:05:44.426Z,1026.01
2019-02-15T05:06:44.401Z,1026.02
2019-02-15T05:07:44.396Z,1026.04
2019-02-15T05:08:44.368Z,1026.03
2019-02-15T05:09:44.359Z,1026.01
2019-02-15T05:10:44.395Z,1026.00
2019-02-15T05:11:44.337Z,1025.98
2019-02-15T05:12:44.328Z,1026.03
2019-02-15T05:13:44.309Z,1026.02
2019-02-15T05:14:52.879Z,1025.99
2019-02-15T05:15:44.291Z,1025.98
2019-02-15T05:16:44.278Z,1026.02
2019-02-15T05:17:44.263Z,1026.01
2019-02-15T05:18:44.257Z,1025.98
2019-02-15T05:19:44.234Z,1026.02
2019-02-15T05:20:44.225Z,1025.99
2019-02-15T05:21:44.213Z,1025.99
2019-02-15T05:22:44.207Z,1025.97
2019-02-15T05:23:44.192Z,1025.94
2019-02-15T05:24:44.173Z,1025.97
2019-02-15T05:25:44.166Z,1025.94
2019-02-15T05:26:44.154Z,1025.95
2019-02-15T05:27:44.132Z,1025.97
2019-02-15T05:28:44.139Z,1025.91
2019-02-15T05:29:44.116Z,1025.95
2019-02-15T05:30:44.099Z,1025.96
2019-02-15T05:31:44.086Z,1025.98
2019-02-15T05:32:44.080Z,1026.02
2019-02-15T05:33:44.056Z,1026.02
2019-02-15T05:34:44.049Z,1025.99
2019-02-15T05:35:44.034Z,1026.00
2019-02-15T05:36:44.018Z,1026.01
2019-02-15T05:37:44.011Z,1025.99
2019-02-15T05:38:43.999Z,1026.00
2019-02-15T05:39:43.989Z,1026.00
2019-02-15T05:40:43.967Z,1026.00
2019-02-15T05:41:43.964Z,1026.01
2019-02-15T05:42:43.949Z,1026.02
2019-02-15T05:43:43.933Z,1025.93
2019-02-15T05:44:43.920Z,1025.99
2019-02-15T05:45:43.909Z,1025.98
2019-02-15T05:46:43.900Z,1025.96
2019-02-15T05:47:43.885Z,1025.96
2019-02-15T05:48:43.874Z,1025.97
2019-02-15T05:49:43.860Z,1025.96
2019-02-15T05:50:43.843Z,1025.98
2019-02-15T05:51:43.864Z,1025.94
2019-02-15T05:52:43.826Z,1025.98
2019-02-15T05:53:43.803Z,1025.94
2019-02-15T05:54:43.800Z,1025.96
2019-02-15T05:55:43.779Z,1025.93
2019-02-15T05:56:43.767Z,1025.96
2019-02-15T05:57:43.756Z,1025.97
2019-02-15T05:58:43.743Z,1025.96
2019-02-15T05:59:43.731Z,1025.93
2019-02-15T06:00:43.722Z,1025.94
2019-02-15T06:01:43.710Z,1025.96
2019-02-15T06:02:43.695Z,1025.97
2019-02-15T06:03:43.676Z,1025.97
2019-02-15T06:04:43.670Z,1025.95
2019-02-15T06:05:43.660Z,1025.93
2019-02-15T06:06:43.640Z,1025.92
2019-02-15T06:07:43.633Z,1025.88
2019-02-15T06:08:43.663Z,1025.87
2019-02-15T06:09:43.608Z,1025.91
2019-02-15T06:10:43.593Z,1025.88
2019-02-15T06:11:43.575Z,1025.88
2019-02-15T06:12:43.563Z,1025.90
2019-02-15T06:13:43.555Z,1025.87
2019-02-15T06:14:43.547Z,1025.86
2019-02-15T06:15:43.531Z,1025.88
2019-02-15T06:16:43.513Z,1025.84
2019-02-15T06:17:43.505Z,1025.89
2019-02-15T06:18:43.517Z,1025.86
2019-02-15T06:19:43.481Z,1025.89
2019-02-15T06:20:43.469Z,1025.88
2019-02-15T06:21:43.453Z,1025.89
2019-02-15T06:22:43.441Z,1025.90
2019-02-15T06:23:43.427Z,1025.92
2019-02-15T06:24:43.411Z,1025.92
2019-02-15T06:25:43.404Z,1025.91
2019-02-15T06:26:43.403Z,1025.93
2019-02-15T06:27:43.369Z,1025.94
2019-02-15T06:28:43.366Z,1025.94
2019-02-15T06:29:43.349Z,1025.94
2019-02-15T06:30:43.342Z,1025.92
2019-02-15T06:31:43.326Z,1025.91
2019-02-15T06:32:43.316Z,1025.93
2019-02-15T06:33:43.299Z,1025.90
2019-02-15T06:34:43.291Z,1025.89
2019-02-15T06:35:43.273Z,1025.91
2019-02-15T06:36:43.261Z,1025.93
2019-02-15T06:37:43.253Z,1025.94
2019-02-15T06:38:43.240Z,1025.96
2019-02-15T06:39:43.220Z,1025.99
2019-02-15T06:40:43.253Z,1026.00
2019-02-15T06:41:44.987Z,1025.96
2019-02-15T06:42:43.189Z,1025.98
2019-02-15T06:43:43.175Z,1025.96
2019-02-15T06:44:43.163Z,1025.98
2019-02-15T06:45:44.982Z,1025.97
2019-02-15T06:46:43.138Z,1025.97
2019-02-15T06:47:43.131Z,1025.96
2019-02-15T06:48:43.115Z,1025.93
2019-02-15T06:49:43.104Z,1025.96
2019-02-15T06:50:43.085Z,1025.95
2019-02-15T06:51:43.075Z,1025.92
2019-02-15T06:52:43.067Z,1025.91
2019-02-15T06:53:43.052Z,1025.91
2019-02-15T06:54:43.039Z,1025.94
2019-02-15T06:55:43.023Z,1025.94
2019-02-15T06:56:43.011Z,1025.89
2019-02-15T06:57:43.001Z,1025.90
2019-02-15T06:58:45.659Z,1025.92
2019-02-15T06:59:42.971Z,1025.96
2019-02-15T07:00:42.963Z,1025.97
2019-02-15T07:01:42.949Z,1025.95
2019-02-15T07:02:42.939Z,1025.97
2019-02-15T07:03:42.927Z,1025.96
2019-02-15T07:04:42.917Z,1026.00
2019-02-15T07:05:42.897Z,1025.99
2019-02-15T07:06:42.892Z,1025.99
2019-02-15T07:07:42.872Z,1025.99
2019-02-15T07:08:42.865Z,1025.95
2019-02-15T07:09:42.863Z,1026.01
2019-02-15T07:10:42.834Z,1025.98
2019-02-15T07:11:42.826Z,1026.02
2019-02-15T07:12:46.551Z,1026.03
2019-02-15T07:13:42.803Z,1026.07
2019-02-15T07:14:42.791Z,1026.04
2019-02-15T07:15:42.771Z,1026.06
2019-02-15T07:16:42.769Z,1026.05
2019-02-15T07:17:42.759Z,1026.04
2019-02-15T07:18:42.740Z,1026.04
2019-02-15T07:19:43.862Z,1026.05
2019-02-15T07:20:42.724Z,1026.05
2019-02-15T07:21:42.697Z,1026.04
2019-02-15T07:22:42.729Z,1026.06
2019-02-15T07:23:42.674Z,1026.08
2019-02-15T07:24:42.677Z,1026.05
2019-02-15T07:25:42.652Z,1026.05
2019-02-15T07:26:42.643Z,1026.08
2019-02-15T07:27:42.634Z,1026.05
2019-02-15T07:28:42.620Z,1026.07
2019-02-15T07:29:42.608Z,1026.04
2019-02-15T07:30:42.594Z,1026.08
2019-02-15T07:31:42.585Z,1026.06
2019-02-15T07:32:42.569Z,1026.09
2019-02-15T07:33:42.554Z,1026.11
2019-02-15T07:34:42.547Z,1026.10
2019-02-15T07:35:42.599Z,1026.09
2019-02-15T07:36:42.603Z,1026.05
2019-02-15T07:37:42.510Z,1026.05
2019-02-15T07:38:42.499Z,1026.03
2019-02-15T07:39:44.003Z,1026.06
2019-02-15T07:40:42.473Z,1026.06
2019-02-15T07:41:42.461Z,1026.06
2019-02-15T07:42:42.455Z,1026.04
2019-02-15T07:43:42.440Z,1026.00
2019-02-15T07:44:43.991Z,1025.99
2019-02-15T07:45:43.085Z,1026.02
2019-02-15T07:46:42.410Z,1026.05
2019-02-15T07:47:42.398Z,1026.04
2019-02-15T07:48:42.384Z,1026.00
2019-02-15T07:49:42.367Z,1026.02
2019-02-15T07:50:42.363Z,1025.99
2019-02-15T07:51:42.346Z,1026.01
2019-02-15T07:52:42.334Z,1025.97
2019-02-15T07:53:42.325Z,1025.99
2019-02-15T07:54:42.312Z,1025.98
2019-02-15T07:55:42.302Z,1026.00
2019-02-15T07:56:42.283Z,1025.97
2019-02-15T07:57:42.283Z,1025.99
2019-02-15T07:58:42.265Z,1025.99
2019-02-15T07:59:42.254Z,1025.98
2019-02-15T08:00:42.241Z,1025.95
2019-02-15T08:01:42.231Z,1025.98
2019-02-15T08:02:42.217Z,1025.99
2019-02-15T08:03:42.209Z,1026.02
2019-02-15T08:04:42.243Z,1025.99
2019-02-15T08:05:42.193Z,1025.97
2019-02-15T08:06:42.172Z,1025.96
2019-02-15T08:07:42.164Z,1025.95
2019-02-15T08:08:42.151Z,1025.95
2019-02-15T08:09:42.141Z,1025.92
2019-02-15T08:10:42.128Z,1025.92
2019-02-15T08:11:42.115Z,1025.88
2019-02-15T08:12:42.106Z,1025.90
2019-02-15T08:13:42.094Z,1025.89
2019-02-15T08:14:42.087Z,1025.89
2019-02-15T08:15:42.074Z,1025.92
2019-02-15T08:16:42.070Z,1025.89
2019-02-15T08:17:42.053Z,1025.88
2019-02-15T08:18:42.045Z,1025.86
2019-02-15T08:19:42.030Z,1025.87
2019-02-15T08:20:42.019Z,1025.85
2019-02-15T08:21:42.002Z,1025.84
2019-02-15T08:22:42.004Z,1025.81
2019-02-15T08:23:41.986Z,1025.77
2019-02-15T08:24:43.512Z,1025.80
2019-02-15T08:25:41.958Z,1025.78
2019-02-15T08:26:41.944Z,1025.78
2019-02-15T08:27:41.942Z,1025.77
2019-02-15T08:28:41.926Z,1025.79
2019-02-15T08:29:41.915Z,1025.81
2019-02-15T08:30:41.901Z,1025.83
2019-02-15T08:31:41.893Z,1025.83
2019-02-15T08:32:41.888Z,1025.83
2019-02-15T08:33:41.869Z,1025.81
2019-02-15T08:34:41.870Z,1025.82
2019-02-15T08:35:41.849Z,1025.83
2019-02-15T08:36:41.835Z,1025.84
2019-02-15T08:37:41.824Z,1025.80
2019-02-15T08:38:41.812Z,1025.82
2019-02-15T08:39:41.805Z,1025.84
2019-02-15T08:40:41.794Z,1025.81
2019-02-15T08:41:41.783Z,1025.83
2019-02-15T08:42:41.780Z,1025.83
2019-02-15T08:43:41.784Z,1025.83
2019-02-15T08:44:41.762Z,1025.78
2019-02-15T08:45:41.739Z,1025.78
2019-02-15T08:46:41.736Z,1025.79
2019-02-15T08:47:41.729Z,1025.78
2019-02-15T08:48:46.147Z,1025.80
2019-02-15T08:49:41.715Z,1025.79
2019-02-15T08:50:41.691Z,1025.82
2019-02-15T08:51:41.681Z,1025.78
2019-02-15T08:52:41.674Z,1025.78
2019-02-15T08:53:43.521Z,1025.82
2019-02-15T08:54:41.696Z,1025.83
2019-02-15T08:55:41.647Z,1025.81
2019-02-15T08:56:41.649Z,1025.86
2019-02-15T08:57:41.623Z,1025.86
2019-02-15T08:58:43.523Z,1025.92
2019-02-15T08:59:41.606Z,1025.93
2019-02-15T09:00:41.599Z,1025.88
2019-02-15T09:01:41.586Z,1025.92
2019-02-15T09:02:41.575Z,1025.90
2019-02-15T09:03:41.568Z,1025.84
2019-02-15T09:04:41.561Z,1025.88
2019-02-15T09:05:41.556Z,1025.82
2019-02-15T09:06:41.543Z,1025.86
2019-02-15T09:07:41.536Z,1025.83
2019-02-15T09:08:41.543Z,1025.81
2019-02-15T09:09:41.522Z,1025.85
2019-02-15T09:10:41.514Z,1025.87
2019-02-15T09:11:43.032Z,1025.85
2019-02-15T09:12:41.495Z,1025.87
2019-02-15T09:13:43.037Z,1025.83
2019-02-15T09:14:41.483Z,1025.83
2019-02-15T09:15:41.477Z,1025.81
2019-02-15T09:16:43.036Z,1025.84
2019-02-15T09:17:41.473Z,1025.81
2019-02-15T09:18:41.464Z,1025.79
2019-02-15T09:19:41.457Z,1025.80
2019-02-15T09:20:41.458Z,1025.82
2019-02-15T09:21:43.028Z,1025.89
2019-02-15T09:22:41.449Z,1025.83
2019-02-15T09:23:41.434Z,1025.85
2019-02-15T09:24:41.438Z,1025.84
2019-02-15T09:25:41.428Z,1025.88
2019-02-15T09:26:41.426Z,1025.88
2019-02-15T09:27:41.417Z,1025.84
2019-02-15T09:28:41.416Z,1025.86
2019-02-15T09:29:41.412Z,1025.85
2019-02-15T09:30:41.419Z,1025.89
2019-02-15T09:31:41.403Z,1025.91
2019-02-15T09:32:41.400Z,1025.90
2019-02-15T09:33:41.398Z,1025.89
2019-02-15T09:34:41.404Z,1025.88
2019-02-15T09:35:41.392Z,1025.91
2019-02-15T09:36:41.394Z,1025.90
2019-02-15T09:37:41.386Z,1025.86
2019-02-15T09:38:41.383Z,1025.88
2019-02-15T09:39:41.381Z,1025.89
2019-02-15T09:40:41.378Z,1025.88
2019-02-15T09:41:41.414Z,1025.86
2019-02-15T09:42:41.374Z,1025.85
2019-02-15T09:43:41.374Z,1025.84
2019-02-15T09:44:41.649Z,1025.86
2019-02-15T09:45:41.378Z,1025.88
2019-02-15T09:46:41.367Z,1025.87
2019-02-15T09:47:41.363Z,1025.87
2019-02-15T09:48:41.362Z,1025.90
2019-02-15T09:49:42.750Z,1025.89
2019-02-15T09:50:41.357Z,1025.84
2019-02-15T09:51:41.355Z,1025.85
2019-02-15T09:52:41.346Z,1025.80
2019-02-15T09:53:41.402Z,1025.80
2019-02-15T09:54:41.343Z,1025.82
2019-02-15T09:55:41.348Z,1025.77
2019-02-15T09:56:41.348Z,1025.73
2019-02-15T09:57:41.398Z,1025.74
2019-02-15T09:58:41.350Z,1025.73
2019-02-15T09:59:43.053Z,1025.72
2019-02-15T10:00:41.344Z,1025.68
2019-02-15T10:01:41.348Z,1025.72
2019-02-15T10:02:41.342Z,1025.73
2019-02-15T10:03:41.344Z,1025.72
2019-02-15T10:04:41.343Z,1025.73
2019-02-15T10:05:41.343Z,1025.74
2019-02-15T10:06:41.346Z,1025.70
2019-02-15T10:07:41.344Z,1025.72
2019-02-15T10:08:41.337Z,1025.67
2019-02-15T10:09:41.339Z,1025.72
2019-02-15T10:10:41.336Z,1025.73
2019-02-15T10:11:41.337Z,1025.71
2019-02-15T10:12:41.425Z,1025.74
2019-02-15T10:13:41.337Z,1025.70
2019-02-15T10:14:41.336Z,1025.77
2019-02-15T10:15:41.342Z,1025.78
2019-02-15T10:16:41.338Z,1025.79
2019-02-15T10:17:41.339Z,1025.77
2019-02-15T10:18:41.338Z,1025.72
2019-02-15T10:19:41.339Z,1025.77
2019-02-15T10:20:41.359Z,1025.76
2019-02-15T10:21:41.341Z,1025.75
2019-02-15T10:22:41.341Z,1025.73
2019-02-15T10:23:41.335Z,1025.78
2019-02-15T10:24:41.339Z,1025.77
2019-02-15T10:25:41.334Z,1025.78
2019-02-15T10:26:41.340Z,1025.78
2019-02-15T10:27:43.071Z,1025.79
2019-02-15T10:28:41.343Z,1025.78
2019-02-15T10:29:41.342Z,1025.79
2019-02-15T10:30:41.338Z,1025.78
2019-02-15T10:31:41.344Z,1025.82
2019-02-15T10:32:41.343Z,1025.83
2019-02-15T10:33:41.345Z,1025.78
2019-02-15T10:34:41.344Z,1025.77
2019-02-15T10:35:43.096Z,1025.78
2019-02-15T10:36:41.345Z,1025.77
2019-02-15T10:37:41.344Z,1025.79
2019-02-15T10:38:41.351Z,1025.76
2019-02-15T10:39:41.351Z,1025.74
2019-02-15T10:40:41.347Z,1025.76
2019-02-15T10:41:41.352Z,1025.74
2019-02-15T10:42:41.351Z,1025.73
2019-02-15T10:43:41.347Z,1025.71
2019-02-15T10:44:41.357Z,1025.69
2019-02-15T10:45:41.353Z,1025.74
2019-02-15T10:46:41.355Z,1025.75
2019-02-15T10:47:43.096Z,1025.70
2019-02-15T10:48:41.357Z,1025.67
2019-02-15T10:49:41.373Z,1025.66
2019-02-15T10:50:41.359Z,1025.66
2019-02-15T10:51:41.364Z,1025.67
2019-02-15T10:52:41.358Z,1025.63
2019-02-15T10:53:41.365Z,1025.65
2019-02-15T10:54:41.364Z,1025.65
2019-02-15T10:55:41.372Z,1025.64
2019-02-15T10:56:41.367Z,1025.64
2019-02-15T10:57:41.374Z,1025.60
2019-02-15T10:58:41.390Z,1025.60
2019-02-15T10:59:41.368Z,1025.59
2019-02-15T11:00:41.374Z,1025.58
2019-02-15T11:01:41.371Z,1025.55
2019-02-15T11:02:41.379Z,1025.54
2019-02-15T11:03:41.378Z,1025.53
2019-02-15T11:04:41.384Z,1025.54
2019-02-15T11:05:41.379Z,1025.53
2019-02-15T11:06:41.380Z,1025.51
2019-02-15T11:07:41.385Z,1025.49
2019-02-15T11:08:41.418Z,1025.51
2019-02-15T11:09:41.385Z,1025.48
2019-02-15T11:10:43.120Z,1025.42
2019-02-15T11:11:41.388Z,1025.43
2019-02-15T11:12:41.391Z,1025.42
2019-02-15T11:13:41.395Z,1025.41
2019-02-15T11:14:41.388Z,1025.41
2019-02-15T11:15:42.124Z,1025.41
2019-02-15T11:16:47.392Z,1025.44
2019-02-15T11:17:41.398Z,1025.36
2019-02-15T11:18:41.401Z,1025.39
2019-02-15T11:19:41.399Z,1025.36
2019-02-15T11:20:41.418Z,1025.35
2019-02-15T11:21:41.403Z,1025.29
2019-02-15T11:22:41.400Z,1025.33
2019-02-15T11:23:41.400Z,1025.29
2019-02-15T11:24:41.403Z,1025.27
2019-02-15T11:25:41.408Z,1025.26
2019-02-15T11:26:41.407Z,1025.27
2019-02-15T11:27:41.406Z,1025.23
2019-02-15T11:28:41.404Z,1025.23
2019-02-15T11:29:41.408Z,1025.22
2019-02-15T11:30:41.410Z,1025.27
2019-02-15T11:31:41.415Z,1025.23
2019-02-15T11:32:41.413Z,1025.18
2019-02-15T11:33:41.443Z,1025.20
2019-02-15T11:34:41.445Z,1025.20
2019-02-15T11:35:41.411Z,1025.16
2019-02-15T11:36:41.423Z,1025.18
2019-02-15T11:37:41.441Z,1025.17
2019-02-15T11:38:41.423Z,1025.14
2019-02-15T11:39:41.427Z,1025.15
2019-02-15T11:40:41.422Z,1025.11
2019-02-15T11:41:41.433Z,1025.12
2019-02-15T11:42:41.435Z,1025.13
2019-02-15T11:43:41.482Z,1025.13
2019-02-15T11:44:41.436Z,1025.09
2019-02-15T11:45:41.440Z,1025.10
2019-02-15T11:46:41.440Z,1025.09
2019-02-15T11:47:41.436Z,1025.05
2019-02-15T11:48:41.441Z,1025.10
2019-02-15T11:49:41.442Z,1025.10
2019-02-15T11:50:41.448Z,1025.05
2019-02-15T11:51:41.507Z,1025.04
2019-02-15T11:52:41.453Z,1025.02
2019-02-15T11:53:41.458Z,1025.05
2019-02-15T11:54:41.457Z,1025.03
2019-02-15T11:55:41.457Z,1025.00
2019-02-15T11:56:41.456Z,1024.98
2019-02-15T11:57:41.468Z,1024.95
2019-02-15T11:58:41.464Z,1024.93
2019-02-15T11:59:41.461Z,1024.94
2019-02-15T12:00:41.472Z,1024.92
2019-02-15T12:01:41.481Z,1024.92
2019-02-15T12:02:41.475Z,1024.85
2019-02-15T12:03:41.473Z,1024.87
2019-02-15T12:04:41.471Z,1024.87
2019-02-15T12:05:43.152Z,1024.91